Aviation Digital Data Service (ADDS)

Output produced by METARs form (1714 UTC 23 October 2017)
found at http://www.aviationweather.gov/adds/metars/
 
KDUJ 231653Z AUTO 13010G22KT 10SM SCT023 BKN029 18/12 A3003 RMK AO2 SLP164 T01780117
KDUJ 231553Z AUTO 14012G23KT 10SM BKN019 17/12 A3007 RMK AO2 SLP175 T01720122
KDUJ 231531Z AUTO 13014G23KT 10SM BKN018 17/12 A3007 RMK AO2 T01670122
KDUJ 231453Z AUTO 14011G19KT 10SM FEW060 16/12 A3008 RMK AO2 SLP181 T01610117 58014
KDUJ 231353Z AUTO 15008G18KT 10SM SCT060 BKN075 16/11 A3010 RMK AO2 SLP189 T01560111
KDUJ 231253Z AUTO 13009KT 10SM BKN085 14/10 A3012 RMK AO2 SLP196 T01390100
KDUJ 231153Z AUTO 13010KT 10SM CLR 13/10 A3012 RMK AO2 SLP196 T01280100 10150 20128 58014
KDUJ 231053Z AUTO 13011KT 10SM CLR 13/10 A3014 RMK AO2 SLP200 T01280100
KDUJ 230953Z AUTO 13007KT 10SM CLR 13/10 A3016 RMK AO2 SLP206 T01330100
KDUJ 230853Z AUTO 14007KT 10SM CLR 14/11 A3017 RMK AO2 SLP209 T01440106 58011
KDUJ 230753Z AUTO 14008KT 10SM CLR 14/11 A3018 RMK AO2 SLP210 T01440106
KDUJ 230653Z AUTO 13009KT 10SM CLR 14/11 A3019 RMK AO2 SLP216 T01440106
KDUJ 230553Z AUTO 14009KT 10SM CLR 15/11 A3020 RMK AO2 SLP218 T01500111 10183 20150 56009
KDUJ 230453Z AUTO 14007KT 10SM CLR 16/11 A3021 RMK AO2 SLP221 T01560111 402330100
KDUJ 230353Z AUTO 13008KT 10SM CLR 16/11 A3022 RMK AO2 SLP225 T01610111
KDUJ 230253Z AUTO 12008KT 10SM CLR 16/11 A3023 RMK AO2 SLP231 T01560106 58008
KDUJ 230153Z AUTO 13007KT 10SM CLR 16/11 A3025 RMK AO2 SLP239 T01610106
KDUJ 230053Z AUTO 13007KT 10SM CLR 17/10 A3025 RMK AO2 SLP240 T01720100
KDUJ 222353Z AUTO 15006G14KT 10SM CLR 18/10 A3025 RMK AO2 SLP242 T01830100 10228 20183 53006
KDUJ 222253Z AUTO 13007KT 10SM CLR 19/09 A3023 RMK AO2 SLP234 T01940094
KDUJ 222153Z AUTO 13005KT 10SM CLR 21/09 A3022 RMK AO2 SLP229 T02060089
KDUJ 222053Z AUTO 11005KT 10SM CLR 21/09 A3023 RMK AO2 SLP232 T02110094 56015
KDUJ 221953Z AUTO 15007KT 110V190 10SM CLR 23/09 A3025 RMK AO2 SLP236 T02280094
KDUJ 221853Z AUTO 17005KT 10SM CLR 22/09 A3025 RMK AO2 SLP237 T02220089
KDUJ 221753Z AUTO 15007KT 10SM CLR 23/10 A3028 RMK AO2 SLP246 T02280100 10233 20117 58014 $